sensor_id;sensor_type;location;lat;lon;timestamp;temperature;humidity
4584;DHT22;2304;47.606;12.186;2023-05-07T00:03:40;15.50;77.40
4584;DHT22;2304;47.606;12.186;2023-05-07T00:08:43;15.50;77.80
4584;DHT22;2304;47.606;12.186;2023-05-07T00:13:45;15.40;78.10
4584;DHT22;2304;47.606;12.186;2023-05-07T00:18:47;15.30;78.10
4584;DHT22;2304;47.606;12.186;2023-05-07T00:23:50;15.30;79.00
4584;DHT22;2304;47.606;12.186;2023-05-07T00:28:52;15.50;79.60
4584;DHT22;2304;47.606;12.186;2023-05-07T00:33:54;15.30;80.20
4584;DHT22;2304;47.606;12.186;2023-05-07T00:38:59;15.10;80.00
4584;DHT22;2304;47.606;12.186;2023-05-07T00:44:02;15.10;79.70
4584;DHT22;2304;47.606;12.186;2023-05-07T00:49:04;15.10;79.90
4584;DHT22;2304;47.606;12.186;2023-05-07T00:54:08;15.10;79.80
4584;DHT22;2304;47.606;12.186;2023-05-07T00:59:10;15.00;80.00
4584;DHT22;2304;47.606;12.186;2023-05-07T01:04:12;15.00;79.30
4584;DHT22;2304;47.606;12.186;2023-05-07T01:09:16;14.90;79.50
4584;DHT22;2304;47.606;12.186;2023-05-07T01:14:19;14.90;79.70
4584;DHT22;2304;47.606;12.186;2023-05-07T01:19:22;14.90;79.90
4584;DHT22;2304;47.606;12.186;2023-05-07T01:24:25;14.80;80.10
4584;DHT22;2304;47.606;12.186;2023-05-07T01:29:27;15.00;80.40
4584;DHT22;2304;47.606;12.186;2023-05-07T01:34:32;14.70;80.10
4584;DHT22;2304;47.606;12.186;2023-05-07T01:39:37;14.70;80.30
4584;DHT22;2304;47.606;12.186;2023-05-07T01:44:40;14.60;80.60
4584;DHT22;2304;47.606;12.186;2023-05-07T01:49:42;14.60;80.90
4584;DHT22;2304;47.606;12.186;2023-05-07T01:54:46;14.60;81.00
4584;DHT22;2304;47.606;12.186;2023-05-07T01:59:47;14.60;80.70
4584;DHT22;2304;47.606;12.186;2023-05-07T02:04:49;14.60;80.50
4584;DHT22;2304;47.606;12.186;2023-05-07T02:09:52;14.60;80.30
4584;DHT22;2304;47.606;12.186;2023-05-07T02:14:55;14.60;80.40
4584;DHT22;2304;47.606;12.186;2023-05-07T02:19:57;14.50;80.40
4584;DHT22;2304;47.606;12.186;2023-05-07T02:25:00;14.50;80.30
4584;DHT22;2304;47.606;12.186;2023-05-07T02:30:02;14.60;80.20
4584;DHT22;2304;47.606;12.186;2023-05-07T02:35:05;14.40;80.30
4584;DHT22;2304;47.606;12.186;2023-05-07T02:40:09;14.30;81.00
4584;DHT22;2304;47.606;12.186;2023-05-07T02:45:12;14.20;81.10
4584;DHT22;2304;47.606;12.186;2023-05-07T02:50:15;14.10;82.00
4584;DHT22;2304;47.606;12.186;2023-05-07T02:55:18;13.90;82.80
4584;DHT22;2304;47.606;12.186;2023-05-07T03:00:21;14.00;82.90
4584;DHT22;2304;47.606;12.186;2023-05-07T03:05:23;13.90;82.80
4584;DHT22;2304;47.606;12.186;2023-05-07T03:10:29;13.90;83.20
4584;DHT22;2304;47.606;12.186;2023-05-07T03:15:31;13.90;83.10
4584;DHT22;2304;47.606;12.186;2023-05-07T03:20:33;13.90;82.80
4584;DHT22;2304;47.606;12.186;2023-05-07T03:25:36;13.90;82.60
4584;DHT22;2304;47.606;12.186;2023-05-07T03:30:38;13.90;82.40
4584;DHT22;2304;47.606;12.186;2023-05-07T03:35:40;13.80;83.20
4584;DHT22;2304;47.606;12.186;2023-05-07T03:40:43;13.80;82.30
4584;DHT22;2304;47.606;12.186;2023-05-07T03:45:45;13.90;81.80
4584;DHT22;2304;47.606;12.186;2023-05-07T03:50:47;13.90;81.30
4584;DHT22;2304;47.606;12.186;2023-05-07T03:55:50;13.90;81.20
4584;DHT22;2304;47.606;12.186;2023-05-07T04:00:52;13.90;81.10
4584;DHT22;2304;47.606;12.186;2023-05-07T04:05:53;13.90;81.40
4584;DHT22;2304;47.606;12.186;2023-05-07T04:10:57;13.90;81.10
4584;DHT22;2304;47.606;12.186;2023-05-07T04:16:01;13.90;80.90
4584;DHT22;2304;47.606;12.186;2023-05-07T04:21:03;13.90;81.00
4584;DHT22;2304;47.606;12.186;2023-05-07T04:26:06;13.80;81.20
4584;DHT22;2304;47.606;12.186;2023-05-07T04:31:08;13.90;81.10
4584;DHT22;2304;47.606;12.186;2023-05-07T04:36:10;13.90;81.20
4584;DHT22;2304;47.606;12.186;2023-05-07T04:41:13;13.90;81.60
4584;DHT22;2304;47.606;12.186;2023-05-07T04:46:15;14.00;82.00
4584;DHT22;2304;47.606;12.186;2023-05-07T04:51:17;13.90;82.00
4584;DHT22;2304;47.606;12.186;2023-05-07T04:56:20;13.80;82.30
4584;DHT22;2304;47.606;12.186;2023-05-07T05:01:22;13.80;82.80
4584;DHT22;2304;47.606;12.186;2023-05-07T05:06:24;13.80;83.20
4584;DHT22;2304;47.606;12.186;2023-05-07T05:11:27;13.90;83.20
4584;DHT22;2304;47.606;12.186;2023-05-07T05:16:29;14.00;83.10
4584;DHT22;2304;47.606;12.186;2023-05-07T05:21:31;14.00;82.80
4584;DHT22;2304;47.606;12.186;2023-05-07T05:26:35;14.00;83.00
4584;DHT22;2304;47.606;12.186;2023-05-07T05:31:36;14.00;82.50
4584;DHT22;2304;47.606;12.186;2023-05-07T05:36:38;14.10;82.10
4584;DHT22;2304;47.606;12.186;2023-05-07T05:41:41;14.20;81.10
4584;DHT22;2304;47.606;12.186;2023-05-07T05:46:43;14.30;81.00
4584;DHT22;2304;47.606;12.186;2023-05-07T05:51:45;14.50;79.60
4584;DHT22;2304;47.606;12.186;2023-05-07T05:56:48;14.60;79.50
4584;DHT22;2304;47.606;12.186;2023-05-07T06:01:50;14.80;78.10
4584;DHT22;2304;47.606;12.186;2023-05-07T06:06:52;15.10;77.70
4584;DHT22;2304;47.606;12.186;2023-05-07T06:11:55;15.40;76.90
4584;DHT22;2304;47.606;12.186;2023-05-07T06:16:57;15.70;74.60
4584;DHT22;2304;47.606;12.186;2023-05-07T06:21:59;15.80;74.90
4584;DHT22;2304;47.606;12.186;2023-05-07T06:27:03;15.80;74.10
4584;DHT22;2304;47.606;12.186;2023-05-07T06:32:08;16.00;75.00
4584;DHT22;2304;47.606;12.186;2023-05-07T06:37:10;16.30;74.60
4584;DHT22;2304;47.606;12.186;2023-05-07T06:42:13;16.40;72.40
4584;DHT22;2304;47.606;12.186;2023-05-07T06:47:15;16.70;71.80
4584;DHT22;2304;47.606;12.186;2023-05-07T06:52:17;16.80;71.90
4584;DHT22;2304;47.606;12.186;2023-05-07T06:57:20;17.10;72.00
4584;DHT22;2304;47.606;12.186;2023-05-07T07:02:22;17.50;71.90
4584;DHT22;2304;47.606;12.186;2023-05-07T07:07:24;17.50;69.00
4584;DHT22;2304;47.606;12.186;2023-05-07T07:12:27;17.50;68.40
4584;DHT22;2304;47.606;12.186;2023-05-07T07:17:29;17.60;68.40
4584;DHT22;2304;47.606;12.186;2023-05-07T07:22:31;17.70;66.90
4584;DHT22;2304;47.606;12.186;2023-05-07T07:27:34;18.10;68.30
4584;DHT22;2304;47.606;12.186;2023-05-07T07:32:36;18.20;65.10
4584;DHT22;2304;47.606;12.186;2023-05-07T07:37:38;18.40;65.60
4584;DHT22;2304;47.606;12.186;2023-05-07T07:42:41;18.70;67.50
4584;DHT22;2304;47.606;12.186;2023-05-07T07:47:42;18.80;64.90
4584;DHT22;2304;47.606;12.186;2023-05-07T07:52:44;19.20;64.80
4584;DHT22;2304;47.606;12.186;2023-05-07T07:57:48;19.40;63.30
4584;DHT22;2304;47.606;12.186;2023-05-07T08:02:49;19.70;63.90
4584;DHT22;2304;47.606;12.186;2023-05-07T08:07:51;19.80;61.60
4584;DHT22;2304;47.606;12.186;2023-05-07T08:12:55;20.00;61.10
4584;DHT22;2304;47.606;12.186;2023-05-07T08:17:57;20.20;60.80
4584;DHT22;2304;47.606;12.186;2023-05-07T08:23:00;20.60;60.90
4584;DHT22;2304;47.606;12.186;2023-05-07T08:28:03;20.90;59.40
4584;DHT22;2304;47.606;12.186;2023-05-07T08:33:05;20.90;57.60
4584;DHT22;2304;47.606;12.186;2023-05-07T08:38:07;21.10;57.40
4584;DHT22;2304;47.606;12.186;2023-05-07T08:43:12;21.40;57.60
4584;DHT22;2304;47.606;12.186;2023-05-07T08:48:16;21.50;57.20
4584;DHT22;2304;47.606;12.186;2023-05-07T08:53:19;21.90;58.30
4584;DHT22;2304;47.606;12.186;2023-05-07T08:58:23;22.10;56.00
4584;DHT22;2304;47.606;12.186;2023-05-07T09:03:25;22.20;56.30
4584;DHT22;2304;47.606;12.186;2023-05-07T09:08:27;22.40;56.70
4584;DHT22;2304;47.606;12.186;2023-05-07T09:13:30;22.70;57.80
4584;DHT22;2304;47.606;12.186;2023-05-07T09:18:32;22.90;56.10
4584;DHT22;2304;47.606;12.186;2023-05-07T09:23:34;23.00;54.10
4584;DHT22;2304;47.606;12.186;2023-05-07T09:28:39;23.10;54.20
4584;DHT22;2304;47.606;12.186;2023-05-07T09:33:41;23.40;53.40
4584;DHT22;2304;47.606;12.186;2023-05-07T09:38:44;23.50;53.50
4584;DHT22;2304;47.606;12.186;2023-05-07T09:43:53;23.50;53.10
4584;DHT22;2304;47.606;12.186;2023-05-07T09:48:57;23.50;53.60
4584;DHT22;2304;47.606;12.186;2023-05-07T09:54:00;23.50;53.80
4584;DHT22;2304;47.606;12.186;2023-05-07T09:59:05;23.70;52.60
4584;DHT22;2304;47.606;12.186;2023-05-07T10:04:08;24.10;53.40
4584;DHT22;2304;47.606;12.186;2023-05-07T10:09:11;24.20;53.50
4584;DHT22;2304;47.606;12.186;2023-05-07T10:14:15;24.10;52.80
4584;DHT22;2304;47.606;12.186;2023-05-07T10:19:18;23.70;53.00
4584;DHT22;2304;47.606;12.186;2023-05-07T10:24:25;23.50;53.40
4584;DHT22;2304;47.606;12.186;2023-05-07T10:34:54;23.20;54.20
4584;DHT22;2304;47.606;12.186;2023-05-07T10:39:56;22.90;53.80
4584;DHT22;2304;47.606;12.186;2023-05-07T10:45:11;22.80;54.60
4584;DHT22;2304;47.606;12.186;2023-05-07T10:50:23;22.60;56.20
4584;DHT22;2304;47.606;12.186;2023-05-07T10:55:25;22.50;57.40
4584;DHT22;2304;47.606;12.186;2023-05-07T11:00:44;22.30;58.40
4584;DHT22;2304;47.606;12.186;2023-05-07T11:05:45;22.30;59.30
4584;DHT22;2304;47.606;12.186;2023-05-07T11:10:49;22.30;60.20
4584;DHT22;2304;47.606;12.186;2023-05-07T11:15:52;22.20;61.20
4584;DHT22;2304;47.606;12.186;2023-05-07T11:20:56;22.10;63.90
4584;DHT22;2304;47.606;12.186;2023-05-07T11:25:59;22.10;63.70
4584;DHT22;2304;47.606;12.186;2023-05-07T11:31:03;21.70;62.20
4584;DHT22;2304;47.606;12.186;2023-05-07T11:36:05;21.60;61.70
4584;DHT22;2304;47.606;12.186;2023-05-07T11:41:09;21.60;62.00
4584;DHT22;2304;47.606;12.186;2023-05-07T11:46:12;21.60;63.70
4584;DHT22;2304;47.606;12.186;2023-05-07T11:51:18;21.40;61.00
4584;DHT22;2304;47.606;12.186;2023-05-07T11:56:20;21.20;59.60
4584;DHT22;2304;47.606;12.186;2023-05-07T12:01:23;20.90;57.30
4584;DHT22;2304;47.606;12.186;2023-05-07T12:06:25;20.90;58.20
4584;DHT22;2304;47.606;12.186;2023-05-07T12:11:27;20.90;58.50
4584;DHT22;2304;47.606;12.186;2023-05-07T12:16:31;20.80;58.80
4584;DHT22;2304;47.606;12.186;2023-05-07T12:21:33;20.70;59.60
4584;DHT22;2304;47.606;12.186;2023-05-07T12:26:38;20.70;60.50
4584;DHT22;2304;47.606;12.186;2023-05-07T12:31:43;20.70;63.60
4584;DHT22;2304;47.606;12.186;2023-05-07T12:36:45;20.80;64.10
4584;DHT22;2304;47.606;12.186;2023-05-07T12:41:53;21.00;65.30
4584;DHT22;2304;47.606;12.186;2023-05-07T12:46:56;21.00;65.00
4584;DHT22;2304;47.606;12.186;2023-05-07T12:51:58;21.20;65.70
4584;DHT22;2304;47.606;12.186;2023-05-07T12:57:02;21.50;64.60
4584;DHT22;2304;47.606;12.186;2023-05-07T13:02:05;21.40;61.50
4584;DHT22;2304;47.606;12.186;2023-05-07T13:07:07;21.50;63.20
4584;DHT22;2304;47.606;12.186;2023-05-07T13:12:09;21.60;62.10
4584;DHT22;2304;47.606;12.186;2023-05-07T13:17:12;21.50;60.70
4584;DHT22;2304;47.606;12.186;2023-05-07T13:22:14;21.60;61.00
4584;DHT22;2304;47.606;12.186;2023-05-07T13:27:16;21.70;61.20
4584;DHT22;2304;47.606;12.186;2023-05-07T13:32:20;21.70;60.50
4584;DHT22;2304;47.606;12.186;2023-05-07T13:37:22;21.60;58.40
4584;DHT22;2304;47.606;12.186;2023-05-07T13:42:24;21.60;57.00
4584;DHT22;2304;47.606;12.186;2023-05-07T13:47:27;21.50;57.40
4584;DHT22;2304;47.606;12.186;2023-05-07T13:52:29;21.50;57.50
4584;DHT22;2304;47.606;12.186;2023-05-07T13:57:31;21.60;58.10
4584;DHT22;2304;47.606;12.186;2023-05-07T14:02:34;21.30;55.40
4584;DHT22;2304;47.606;12.186;2023-05-07T14:07:36;21.10;55.40
4584;DHT22;2304;47.606;12.186;2023-05-07T14:12:38;21.00;56.10
4584;DHT22;2304;47.606;12.186;2023-05-07T14:17:41;20.80;54.70
4584;DHT22;2304;47.606;12.186;2023-05-07T14:22:43;20.80;55.30
4584;DHT22;2304;47.606;12.186;2023-05-07T14:27:45;20.70;54.30
4584;DHT22;2304;47.606;12.186;2023-05-07T14:32:49;20.70;54.70
4584;DHT22;2304;47.606;12.186;2023-05-07T14:37:50;20.90;56.90
4584;DHT22;2304;47.606;12.186;2023-05-07T14:42:52;21.10;56.20
4584;DHT22;2304;47.606;12.186;2023-05-07T14:47:55;21.10;56.00
4584;DHT22;2304;47.606;12.186;2023-05-07T14:52:57;21.20;57.10
4584;DHT22;2304;47.606;12.186;2023-05-07T14:57:59;21.30;57.40
4584;DHT22;2304;47.606;12.186;2023-05-07T15:03:06;21.30;56.10
4584;DHT22;2304;47.606;12.186;2023-05-07T15:08:08;21.20;55.30
4584;DHT22;2304;47.606;12.186;2023-05-07T15:13:10;21.10;56.30
4584;DHT22;2304;47.606;12.186;2023-05-07T15:18:14;21.10;57.20
4584;DHT22;2304;47.606;12.186;2023-05-07T15:23:16;21.10;57.70
4584;DHT22;2304;47.606;12.186;2023-05-07T15:28:17;21.20;57.40
4584;DHT22;2304;47.606;12.186;2023-05-07T15:33:21;21.20;57.80
4584;DHT22;2304;47.606;12.186;2023-05-07T15:38:22;21.20;57.70
4584;DHT22;2304;47.606;12.186;2023-05-07T15:43:24;21.30;58.10
4584;DHT22;2304;47.606;12.186;2023-05-07T15:48:28;21.40;58.30
4584;DHT22;2304;47.606;12.186;2023-05-07T15:53:30;21.60;57.70
4584;DHT22;2304;47.606;12.186;2023-05-07T15:58:32;21.60;57.30
4584;DHT22;2304;47.606;12.186;2023-05-07T16:03:35;21.70;57.80
4584;DHT22;2304;47.606;12.186;2023-05-07T16:08:38;21.80;56.80
4584;DHT22;2304;47.606;12.186;2023-05-07T16:13:41;21.90;57.30
4584;DHT22;2304;47.606;12.186;2023-05-07T16:18:44;22.00;57.30
4584;DHT22;2304;47.606;12.186;2023-05-07T16:23:46;21.90;57.40
4584;DHT22;2304;47.606;12.186;2023-05-07T16:28:47;21.90;56.20
4584;DHT22;2304;47.606;12.186;2023-05-07T16:33:51;21.70;56.30
4584;DHT22;2304;47.606;12.186;2023-05-07T16:38:55;21.60;56.80
4584;DHT22;2304;47.606;12.186;2023-05-07T16:43:57;21.60;57.50
4584;DHT22;2304;47.606;12.186;2023-05-07T16:49:00;21.60;57.60
4584;DHT22;2304;47.606;12.186;2023-05-07T16:54:02;21.50;58.50
4584;DHT22;2304;47.606;12.186;2023-05-07T16:59:04;21.40;59.90
4584;DHT22;2304;47.606;12.186;2023-05-07T17:04:08;21.30;61.70
4584;DHT22;2304;47.606;12.186;2023-05-07T17:09:09;21.10;62.80
4584;DHT22;2304;47.606;12.186;2023-05-07T17:14:12;21.00;62.20
4584;DHT22;2304;47.606;12.186;2023-05-07T17:19:15;20.90;61.90
4584;DHT22;2304;47.606;12.186;2023-05-07T17:24:16;20.80;61.70
4584;DHT22;2304;47.606;12.186;2023-05-07T17:29:18;20.80;60.90
4584;DHT22;2304;47.606;12.186;2023-05-07T17:34:22;20.70;58.60
4584;DHT22;2304;47.606;12.186;2023-05-07T17:39:24;20.50;57.80
4584;DHT22;2304;47.606;12.186;2023-05-07T17:44:25;20.30;57.40
4584;DHT22;2304;47.606;12.186;2023-05-07T17:49:29;20.20;57.80
4584;DHT22;2304;47.606;12.186;2023-05-07T17:54:30;20.10;58.60
4584;DHT22;2304;47.606;12.186;2023-05-07T17:59:32;20.00;57.80
4584;DHT22;2304;47.606;12.186;2023-05-07T18:04:36;20.00;57.40
4584;DHT22;2304;47.606;12.186;2023-05-07T18:09:37;20.00;58.10
4584;DHT22;2304;47.606;12.186;2023-05-07T18:14:39;19.80;58.00
4584;DHT22;2304;47.606;12.186;2023-05-07T18:19:42;19.70;57.70
4584;DHT22;2304;47.606;12.186;2023-05-07T18:24:44;19.70;56.80
4584;DHT22;2304;47.606;12.186;2023-05-07T18:29:46;19.50;56.30
4584;DHT22;2304;47.606;12.186;2023-05-07T18:34:49;19.50;56.10
4584;DHT22;2304;47.606;12.186;2023-05-07T18:39:51;19.40;56.20
4584;DHT22;2304;47.606;12.186;2023-05-07T18:44:53;19.40;56.30
4584;DHT22;2304;47.606;12.186;2023-05-07T18:49:56;19.40;56.40
4584;DHT22;2304;47.606;12.186;2023-05-07T18:54:58;19.60;56.80
4584;DHT22;2304;47.606;12.186;2023-05-07T19:00:00;19.30;57.70
4584;DHT22;2304;47.606;12.186;2023-05-07T19:05:04;19.20;58.50
4584;DHT22;2304;47.606;12.186;2023-05-07T19:10:07;19.10;58.90
4584;DHT22;2304;47.606;12.186;2023-05-07T19:15:10;19.10;59.10
4584;DHT22;2304;47.606;12.186;2023-05-07T19:20:13;19.00;58.90
4584;DHT22;2304;47.606;12.186;2023-05-07T19:25:15;19.00;59.10
4584;DHT22;2304;47.606;12.186;2023-05-07T19:30:17;18.90;59.20
4584;DHT22;2304;47.606;12.186;2023-05-07T19:35:21;18.80;59.30
4584;DHT22;2304;47.606;12.186;2023-05-07T19:40:22;18.70;59.50
4584;DHT22;2304;47.606;12.186;2023-05-07T19:45:24;18.70;62.10
4584;DHT22;2304;47.606;12.186;2023-05-07T19:50:27;18.60;62.40
4584;DHT22;2304;47.606;12.186;2023-05-07T19:55:29;18.60;62.60
4584;DHT22;2304;47.606;12.186;2023-05-07T20:00:31;18.50;64.20
4584;DHT22;2304;47.606;12.186;2023-05-07T20:05:34;18.40;65.10
4584;DHT22;2304;47.606;12.186;2023-05-07T20:10:36;18.50;65.80
4584;DHT22;2304;47.606;12.186;2023-05-07T20:15:38;18.30;66.20
4584;DHT22;2304;47.606;12.186;2023-05-07T20:20:41;18.20;67.70
4584;DHT22;2304;47.606;12.186;2023-05-07T20:25:45;18.10;68.70
4584;DHT22;2304;47.606;12.186;2023-05-07T20:30:47;18.10;68.30
4584;DHT22;2304;47.606;12.186;2023-05-07T20:35:50;18.10;68.40
4584;DHT22;2304;47.606;12.186;2023-05-07T20:40:52;18.10;68.10
4584;DHT22;2304;47.606;12.186;2023-05-07T20:45:58;18.10;68.30
4584;DHT22;2304;47.606;12.186;2023-05-07T20:51:01;18.00;68.50
4584;DHT22;2304;47.606;12.186;2023-05-07T20:56:03;17.90;69.50
4584;DHT22;2304;47.606;12.186;2023-05-07T21:01:05;17.90;68.70
4584;DHT22;2304;47.606;12.186;2023-05-07T21:06:08;17.90;69.10
4584;DHT22;2304;47.606;12.186;2023-05-07T21:11:10;17.80;69.20
4584;DHT22;2304;47.606;12.186;2023-05-07T21:16:13;17.80;69.40
4584;DHT22;2304;47.606;12.186;2023-05-07T21:21:16;17.80;69.30
4584;DHT22;2304;47.606;12.186;2023-05-07T21:26:18;17.70;69.60
4584;DHT22;2304;47.606;12.186;2023-05-07T21:31:21;17.60;70.20
4584;DHT22;2304;47.606;12.186;2023-05-07T21:36:24;17.40;70.60
4584;DHT22;2304;47.606;12.186;2023-05-07T21:41:26;17.40;70.10
4584;DHT22;2304;47.606;12.186;2023-05-07T21:46:28;17.40;70.10
4584;DHT22;2304;47.606;12.186;2023-05-07T21:51:31;17.40;70.20
4584;DHT22;2304;47.606;12.186;2023-05-07T21:56:33;17.30;71.10
4584;DHT22;2304;47.606;12.186;2023-05-07T22:01:35;17.30;71.00
4584;DHT22;2304;47.606;12.186;2023-05-07T22:06:38;17.30;71.40
4584;DHT22;2304;47.606;12.186;2023-05-07T22:11:40;17.30;71.40
4584;DHT22;2304;47.606;12.186;2023-05-07T22:16:42;17.20;71.30
4584;DHT22;2304;47.606;12.186;2023-05-07T22:21:45;17.20;71.40
4584;DHT22;2304;47.606;12.186;2023-05-07T22:26:47;17.20;71.70
4584;DHT22;2304;47.606;12.186;2023-05-07T22:31:49;17.10;71.70
4584;DHT22;2304;47.606;12.186;2023-05-07T22:36:52;17.10;72.30
4584;DHT22;2304;47.606;12.186;2023-05-07T22:41:54;17.00;72.30
4584;DHT22;2304;47.606;12.186;2023-05-07T22:46:56;17.00;72.80
4584;DHT22;2304;47.606;12.186;2023-05-07T22:51:59;16.90;72.30
4584;DHT22;2304;47.606;12.186;2023-05-07T22:57:01;16.90;72.50
4584;DHT22;2304;47.606;12.186;2023-05-07T23:02:03;16.90;72.50
4584;DHT22;2304;47.606;12.186;2023-05-07T23:07:06;16.90;72.40
4584;DHT22;2304;47.606;12.186;2023-05-07T23:12:08;16.80;72.40
4584;DHT22;2304;47.606;12.186;2023-05-07T23:17:10;16.80;72.80
4584;DHT22;2304;47.606;12.186;2023-05-07T23:22:13;16.80;72.30
4584;DHT22;2304;47.606;12.186;2023-05-07T23:27:16;16.70;72.90
4584;DHT22;2304;47.606;12.186;2023-05-07T23:32:18;16.60;73.00
4584;DHT22;2304;47.606;12.186;2023-05-07T23:37:22;16.70;73.40
4584;DHT22;2304;47.606;12.186;2023-05-07T23:42:24;16.50;73.40
4584;DHT22;2304;47.606;12.186;2023-05-07T23:47:26;16.50;73.60
4584;DHT22;2304;47.606;12.186;2023-05-07T23:52:29;16.40;73.90
4584;DHT22;2304;47.606;12.186;2023-05-07T23:57:30;16.40;73.80
